createdAt,value
2019-04-18T00:01:34.561Z,9.30
2019-04-18T00:04:09.013Z,9.60
2019-04-18T00:06:38.120Z,9.10
2019-04-18T00:09:08.959Z,9.50
2019-04-18T00:11:37.702Z,9.03
2019-04-18T00:14:07.847Z,9.60
2019-04-18T00:16:37.412Z,9.87
2019-04-18T00:19:08.973Z,9.43
2019-04-18T00:21:36.884Z,9.50
2019-04-18T00:24:06.422Z,9.73
2019-04-18T00:26:35.284Z,9.63
2019-04-18T00:29:04.217Z,9.80
2019-04-18T00:31:34.988Z,9.87
2019-04-18T00:34:14.492Z,9.60
2019-04-18T00:36:33.971Z,9.60
2019-04-18T00:39:05.267Z,9.80
2019-04-18T00:41:33.139Z,9.63
2019-04-18T00:44:03.705Z,9.83
2019-04-18T00:46:32.165Z,10.50
2019-04-18T00:49:01.506Z,9.40
2019-04-18T00:51:30.219Z,9.83
2019-04-18T00:53:58.870Z,9.77
2019-04-18T00:56:27.865Z,9.50
2019-04-18T00:58:57.462Z,9.83
2019-04-18T01:01:26.372Z,9.47
2019-04-18T01:03:57.831Z,9.60
2019-04-18T01:06:25.508Z,9.40
2019-04-18T01:08:54.157Z,9.77
2019-04-18T01:11:23.019Z,9.67
2019-04-18T01:13:51.789Z,9.73
2019-04-18T01:16:20.456Z,9.60
2019-04-18T01:18:49.447Z,8.93
2019-04-18T01:21:18.344Z,9.90
2019-04-18T01:23:46.982Z,9.30
2019-04-18T01:26:15.645Z,9.80
2019-04-18T01:28:44.541Z,9.80
2019-04-18T01:31:13.213Z,9.30
2019-04-18T01:33:41.987Z,8.80
2019-04-18T01:36:10.973Z,9.97
2019-04-18T01:38:42.386Z,9.90
2019-04-18T01:41:11.817Z,9.13
2019-04-18T01:43:47.149Z,9.90
2019-04-18T01:46:26.058Z,9.17
2019-04-18T01:48:54.694Z,9.40
2019-04-18T01:51:23.576Z,9.57
2019-04-18T01:53:52.453Z,9.87
2019-04-18T01:56:23.901Z,8.80
2019-04-18T01:58:51.572Z,9.77
2019-04-18T02:01:21.243Z,9.40
2019-04-18T02:03:50.612Z,9.27
2019-04-18T02:06:19.291Z,9.90
2019-04-18T02:08:51.659Z,10.00
2019-04-18T02:11:18.789Z,9.73
2019-04-18T02:13:49.059Z,9.40
2019-04-18T02:16:17.875Z,8.90
2019-04-18T02:18:46.592Z,9.10
2019-04-18T02:21:15.257Z,9.60
2019-04-18T02:23:43.893Z,9.13
2019-04-18T02:26:16.401Z,9.30
2019-04-18T02:28:43.024Z,9.00
2019-04-18T02:31:11.880Z,8.57
2019-04-18T02:33:42.067Z,9.43
2019-04-18T02:36:11.358Z,10.10
2019-04-18T02:38:40.057Z,9.60
2019-04-18T02:41:11.720Z,9.23
2019-04-18T02:43:39.563Z,8.27
2019-04-18T02:46:10.460Z,8.97
2019-04-18T02:48:38.568Z,8.80
2019-04-18T02:51:07.323Z,9.17
2019-04-18T02:53:36.045Z,9.03
2019-04-18T02:56:17.402Z,9.20
2019-04-18T02:58:49.780Z,9.63
2019-04-18T03:01:35.993Z,8.83
2019-04-18T03:04:26.025Z,9.60
2019-04-18T03:06:54.684Z,9.37
2019-04-18T03:09:23.374Z,9.40
2019-04-18T03:11:56.839Z,10.30
2019-04-18T03:14:22.474Z,9.47
2019-04-18T03:16:57.319Z,8.70
2019-04-18T03:19:22.321Z,9.03
2019-04-18T03:21:51.089Z,9.63
2019-04-18T03:24:19.937Z,9.03
2019-04-18T03:26:48.893Z,8.93
2019-04-18T03:29:19.848Z,9.23
2019-04-18T03:31:58.092Z,9.10
2019-04-18T03:34:18.371Z,9.67
2019-04-18T03:37:06.355Z,8.47
2019-04-18T03:39:35.902Z,8.90
2019-04-18T03:42:04.887Z,9.63
2019-04-18T03:44:44.974Z,9.00
2019-04-18T03:47:17.060Z,9.20
2019-04-18T03:49:45.715Z,9.10
2019-04-18T03:52:14.356Z,9.30
2019-04-18T03:54:46.849Z,9.07
2019-04-18T03:57:13.459Z,9.33
2019-04-18T03:59:42.136Z,8.77
2019-04-18T04:02:11.018Z,9.40
2019-04-18T04:04:39.726Z,8.70
2019-04-18T04:07:08.381Z,9.13
2019-04-18T04:09:37.312Z,9.33
2019-04-18T04:12:06.964Z,8.60
2019-04-18T04:14:37.052Z,9.23
2019-04-18T04:17:06.091Z,9.37
2019-04-18T04:19:34.760Z,8.80
2019-04-18T04:22:04.750Z,8.80
2019-04-18T04:24:33.895Z,9.40
2019-04-18T04:27:03.653Z,8.43
2019-04-18T04:29:34.284Z,9.17
2019-04-18T04:32:02.888Z,9.07
2019-04-18T04:34:31.791Z,10.47
2019-04-18T04:37:02.225Z,9.57
2019-04-18T04:39:32.235Z,8.60
2019-04-18T04:42:01.067Z,8.77
2019-04-18T04:44:30.413Z,9.17
2019-04-18T04:47:33.878Z,8.87
2019-04-18T04:50:05.139Z,8.70
2019-04-18T04:52:34.136Z,9.53
2019-04-18T04:55:03.160Z,9.20
2019-04-18T04:57:40.522Z,8.97
2019-04-18T05:00:23.723Z,9.40
2019-04-18T05:02:47.735Z,9.20
2019-04-18T05:05:16.528Z,9.43
2019-04-18T05:07:45.291Z,9.47
2019-04-18T05:10:15.041Z,8.93
2019-04-18T05:12:44.209Z,9.63
2019-04-18T05:15:14.025Z,8.90
2019-04-18T05:17:43.260Z,9.03
2019-04-18T05:20:12.077Z,9.20
2019-04-18T05:22:53.621Z,9.10
2019-04-18T05:25:11.700Z,8.70
2019-04-18T05:27:40.979Z,9.90
2019-04-18T05:30:09.857Z,9.40
2019-04-18T05:32:38.481Z,8.97
2019-04-18T05:35:07.767Z,9.10
2019-04-18T05:37:36.436Z,9.63
2019-04-18T05:40:05.628Z,9.77
2019-04-18T05:42:34.296Z,9.10
2019-04-18T05:45:04.566Z,8.87
2019-04-18T05:47:42.187Z,9.70
2019-04-18T05:50:35.033Z,10.23
2019-04-18T05:53:18.208Z,9.60
2019-04-18T05:55:46.872Z,10.20
2019-04-18T05:58:25.397Z,10.80
2019-04-18T06:01:06.766Z,10.73
2019-04-18T06:03:57.066Z,11.00
2019-04-18T06:06:28.592Z,11.40
2019-04-18T06:08:57.228Z,9.27
2019-04-18T06:11:30.852Z,9.60
2019-04-18T06:14:09.449Z,9.60
2019-04-18T06:16:44.293Z,11.03
2019-04-18T06:19:23.003Z,10.70
2019-04-18T06:21:55.419Z,11.20
2019-04-18T06:24:30.878Z,10.30
2019-04-18T06:27:07.866Z,11.20
2019-04-18T06:29:58.105Z,12.00
2019-04-18T06:32:49.088Z,11.10
2019-04-18T06:35:18.575Z,13.00
2019-04-18T06:37:47.383Z,12.50
2019-04-18T06:40:16.335Z,14.03
2019-04-18T06:42:48.910Z,12.80
2019-04-18T06:45:15.650Z,12.93
2019-04-18T06:47:44.301Z,12.60
2019-04-18T06:50:13.181Z,12.67
2019-04-18T06:52:41.844Z,12.13
2019-04-18T06:55:10.751Z,12.10
2019-04-18T06:57:39.496Z,12.47
2019-04-18T07:00:12.029Z,12.00
2019-04-18T07:02:41.950Z,11.57
2019-04-18T07:05:11.522Z,11.40
2019-04-18T07:07:41.561Z,12.50
2019-04-18T07:10:33.965Z,12.03
2019-04-18T07:13:04.705Z,12.30
2019-04-18T07:15:36.627Z,12.37
2019-04-18T07:18:03.826Z,12.90
2019-04-18T07:20:39.580Z,12.20
2019-04-18T07:23:11.497Z,13.33
2019-04-18T07:25:40.147Z,13.90
2019-04-18T07:28:08.857Z,12.30
2019-04-18T07:30:43.247Z,12.67
2019-04-18T07:33:07.957Z,10.73
2019-04-18T07:35:38.029Z,12.20
2019-04-18T07:38:10.121Z,11.70
2019-04-18T07:40:43.814Z,12.13
2019-04-18T07:43:14.838Z,12.20
2019-04-18T07:45:44.944Z,10.90
2019-04-18T07:48:15.174Z,11.90
2019-04-18T07:50:45.196Z,13.03
2019-04-18T07:53:22.396Z,11.87
2019-04-18T07:55:54.637Z,11.50
2019-04-18T07:58:25.179Z,13.40
2019-04-18T08:00:57.754Z,12.77
2019-04-18T08:03:39.580Z,13.23
2019-04-18T08:06:05.882Z,13.00
2019-04-18T08:08:41.530Z,12.50
2019-04-18T08:11:14.397Z,14.77
2019-04-18T08:13:44.428Z,13.10
2019-04-18T08:16:14.550Z,12.73
2019-04-18T08:18:44.667Z,12.80
2019-04-18T08:21:14.890Z,13.47
2019-04-18T08:23:51.289Z,13.40
2019-04-18T08:26:25.133Z,13.97
2019-04-18T08:28:56.714Z,14.20
2019-04-18T08:31:31.281Z,14.07
2019-04-18T08:34:02.690Z,14.07
2019-04-18T08:36:36.301Z,14.33
2019-04-18T08:39:21.629Z,15.13
2019-04-18T08:42:22.610Z,14.83
2019-04-18T08:44:57.948Z,15.13
2019-04-18T08:47:28.049Z,14.13
2019-04-18T08:50:06.289Z,14.27
2019-04-18T08:52:35.475Z,14.80
2019-04-18T08:55:33.448Z,14.47
2019-04-18T08:58:06.431Z,14.67
2019-04-18T09:00:36.653Z,14.83
2019-04-18T09:03:21.601Z,14.53
2019-04-18T09:05:38.572Z,13.73
2019-04-18T09:08:12.954Z,15.30
2019-04-18T09:10:44.184Z,15.50
2019-04-18T09:13:25.680Z,16.00
2019-04-18T09:15:50.579Z,15.90
2019-04-18T09:18:22.838Z,14.70
2019-04-18T09:20:53.484Z,15.93
2019-04-18T09:23:23.990Z,15.03
2019-04-18T09:25:55.338Z,15.20
2019-04-18T09:28:28.246Z,14.50
2019-04-18T09:30:58.671Z,15.80
2019-04-18T09:33:29.501Z,14.70
2019-04-18T09:35:59.314Z,16.10
2019-04-18T09:38:33.353Z,15.77
2019-04-18T09:41:05.085Z,15.87
2019-04-18T09:43:41.621Z,15.23
2019-04-18T09:46:15.461Z,14.63
2019-04-18T09:48:45.454Z,14.00
2019-04-18T09:51:16.006Z,14.20
2019-04-18T09:53:48.280Z,14.50
2019-04-18T09:56:21.260Z,14.90
2019-04-18T09:58:51.179Z,15.50
2019-04-18T10:01:21.213Z,14.37
2019-04-18T10:03:51.210Z,15.00
2019-04-18T10:06:26.654Z,15.57
2019-04-18T10:09:01.176Z,16.63
2019-04-18T10:11:31.304Z,15.03
2019-04-18T10:14:07.658Z,15.60
2019-04-18T10:16:41.057Z,15.87
2019-04-18T10:19:11.337Z,15.37
2019-04-18T10:21:46.212Z,15.70
2019-04-18T10:24:20.420Z,15.20
2019-04-18T10:26:58.590Z,15.07
2019-04-18T10:29:51.816Z,15.80
2019-04-18T10:32:18.633Z,15.23
2019-04-18T10:34:53.318Z,14.97
2019-04-18T10:37:23.075Z,15.57
2019-04-18T10:39:55.958Z,15.67
2019-04-18T10:42:28.841Z,15.80
2019-04-18T10:44:59.877Z,16.67
2019-04-18T10:47:48.840Z,17.00
2019-04-18T10:50:18.652Z,16.23
2019-04-18T10:52:50.208Z,16.57
2019-04-18T10:55:26.261Z,16.00
2019-04-18T10:57:52.801Z,16.10
2019-04-18T11:00:23.853Z,16.13
2019-04-18T11:02:54.035Z,15.30
2019-04-18T11:05:31.252Z,15.10
2019-04-18T11:07:59.522Z,16.50
2019-04-18T11:10:32.303Z,15.70
2019-04-18T11:13:05.499Z,15.70
2019-04-18T11:15:37.553Z,15.50
2019-04-18T11:18:07.397Z,15.90
2019-04-18T11:20:37.907Z,15.70
2019-04-18T11:23:08.809Z,15.77
2019-04-18T11:25:38.859Z,16.97
2019-04-18T11:28:08.978Z,16.20
2019-04-18T11:30:38.967Z,17.40
2019-04-18T11:33:12.128Z,16.67
2019-04-18T11:35:57.940Z,16.27
2019-04-18T11:38:28.199Z,16.00
2019-04-18T11:40:58.312Z,16.60
2019-04-18T11:43:28.329Z,17.03
2019-04-18T11:45:58.351Z,16.47
2019-04-18T11:48:28.667Z,17.00
2019-04-18T11:50:58.689Z,16.10
2019-04-18T11:53:28.909Z,15.73
2019-04-18T11:55:59.453Z,17.00
2019-04-18T11:58:29.762Z,16.60
2019-04-18T12:01:19.344Z,16.80
2019-04-18T12:04:11.984Z,17.50
2019-04-18T12:06:44.048Z,17.90
2019-04-18T12:09:14.067Z,17.77
2019-04-18T12:11:42.692Z,16.70
2019-04-18T12:14:11.352Z,19.27
2019-04-18T12:16:40.591Z,17.20
2019-04-18T12:19:10.086Z,17.90
2019-04-18T12:21:38.951Z,18.10
2019-04-18T12:24:07.676Z,17.00
2019-04-18T12:26:36.377Z,17.33
2019-04-18T12:29:05.744Z,17.47
2019-04-18T12:31:34.889Z,15.83
2019-04-18T12:34:03.560Z,17.20
2019-04-18T12:36:32.261Z,17.30
2019-04-18T12:39:01.127Z,16.83
2019-04-18T12:41:29.835Z,16.10
2019-04-18T12:43:58.754Z,15.93
2019-04-18T12:46:27.419Z,16.97
2019-04-18T12:48:56.061Z,17.00
2019-04-18T12:51:24.758Z,16.10
2019-04-18T12:53:53.387Z,18.50
2019-04-18T12:56:22.357Z,16.73
2019-04-18T12:58:51.042Z,16.00
2019-04-18T13:01:19.685Z,16.67
2019-04-18T13:03:48.391Z,16.50
2019-04-18T13:06:17.036Z,16.33
2019-04-18T13:08:55.542Z,16.40
2019-04-18T13:11:32.208Z,16.70
2019-04-18T13:14:23.626Z,17.60
2019-04-18T13:17:05.323Z,18.30
2019-04-18T13:19:34.132Z,17.50
2019-04-18T13:22:02.841Z,17.80
2019-04-18T13:24:31.477Z,16.40
2019-04-18T13:27:00.404Z,15.60
2019-04-18T13:29:29.054Z,16.40
2019-04-18T13:32:05.097Z,16.10
2019-04-18T13:34:28.285Z,15.50
2019-04-18T13:36:57.950Z,15.40
2019-04-18T13:39:26.697Z,17.43
2019-04-18T13:41:55.369Z,16.90
2019-04-18T13:44:24.085Z,16.33
2019-04-18T13:46:53.335Z,16.80
2019-04-18T13:49:22.241Z,16.10
2019-04-18T13:51:50.870Z,15.73
2019-04-18T13:54:19.515Z,15.30
2019-04-18T13:56:48.181Z,16.10
2019-04-18T13:59:17.008Z,15.20
2019-04-18T14:01:46.693Z,15.03
2019-04-18T14:04:15.408Z,15.10
2019-04-18T14:06:44.046Z,14.90
2019-04-18T14:09:13.120Z,13.57
2019-04-18T14:11:42.008Z,14.53
2019-04-18T14:14:10.881Z,14.67
2019-04-18T14:16:39.552Z,14.03
2019-04-18T14:19:08.180Z,13.50
2019-04-18T14:21:36.828Z,15.00
2019-04-18T14:24:05.873Z,15.43
2019-04-18T14:26:34.600Z,14.53
2019-04-18T14:29:03.874Z,13.30
2019-04-18T14:31:32.832Z,13.20
2019-04-18T14:34:01.681Z,14.30
2019-04-18T14:36:30.386Z,13.60
2019-04-18T14:38:59.424Z,13.47
2019-04-18T14:41:28.052Z,13.57
2019-04-18T14:43:57.123Z,12.60
2019-04-18T14:46:25.821Z,12.00
2019-04-18T14:48:55.085Z,12.43
2019-04-18T14:51:24.276Z,12.37
2019-04-18T14:53:52.980Z,12.40
2019-04-18T14:56:21.657Z,13.43
2019-04-18T14:58:50.292Z,13.17
2019-04-18T15:01:19.352Z,13.90
2019-04-18T15:03:48.087Z,13.23
2019-04-18T15:06:16.885Z,13.60
2019-04-18T15:08:46.232Z,13.20
2019-04-18T15:11:15.130Z,13.57
2019-04-18T15:13:43.837Z,13.90
2019-04-18T15:16:13.403Z,14.40
2019-04-18T15:18:42.344Z,14.20
2019-04-18T15:21:11.242Z,15.43
2019-04-18T15:23:39.978Z,13.93
2019-04-18T15:26:09.880Z,14.57
2019-04-18T15:28:46.240Z,13.83
2019-04-18T15:31:15.027Z,12.33
2019-04-18T15:33:45.775Z,13.07
2019-04-18T15:36:14.052Z,12.40
2019-04-18T15:38:42.721Z,12.43
2019-04-18T15:41:12.493Z,11.53
2019-04-18T15:43:41.140Z,12.60
2019-04-18T15:46:17.973Z,12.80
2019-04-18T15:48:46.415Z,12.60
2019-04-18T15:51:15.140Z,11.70
2019-04-18T15:53:44.185Z,12.43
2019-04-18T15:56:12.805Z,13.20
2019-04-18T15:58:41.574Z,13.10
2019-04-18T16:01:11.131Z,13.70
2019-04-18T16:03:39.852Z,13.60
2019-04-18T16:06:08.641Z,12.40
2019-04-18T16:08:38.746Z,11.93
2019-04-18T16:11:07.838Z,12.10
2019-04-18T16:13:36.805Z,11.50
2019-04-18T16:16:05.573Z,10.97
2019-04-18T16:18:34.240Z,11.30
2019-04-18T16:21:02.938Z,11.60
2019-04-18T16:23:31.670Z,10.20
2019-04-18T16:26:00.320Z,10.50
2019-04-18T16:28:28.974Z,9.70
2019-04-18T16:30:57.625Z,9.53
2019-04-18T16:33:37.677Z,9.80
2019-04-18T16:35:56.881Z,9.67
2019-04-18T16:38:25.544Z,10.60
2019-04-18T16:40:54.233Z,9.87
2019-04-18T16:43:22.880Z,9.37
2019-04-18T16:45:51.673Z,9.67
2019-04-18T16:48:20.404Z,8.70
2019-04-18T16:50:49.108Z,8.97
2019-04-18T16:53:18.184Z,8.33
2019-04-18T16:55:46.485Z,8.00
2019-04-18T16:58:15.135Z,7.90
2019-04-18T17:00:45.505Z,7.73
2019-04-18T17:03:15.082Z,7.87
2019-04-18T17:05:44.016Z,7.53
2019-04-18T17:08:13.006Z,7.83
2019-04-18T17:10:41.715Z,8.03
2019-04-18T17:13:10.352Z,7.23
2019-04-18T17:15:38.985Z,7.30
2019-04-18T17:18:07.775Z,8.00
2019-04-18T17:20:36.569Z,8.40
2019-04-18T17:23:22.706Z,8.40
2019-04-18T17:25:52.080Z,8.87
2019-04-18T17:28:22.810Z,8.70
2019-04-18T17:30:52.947Z,8.90
2019-04-18T17:33:21.707Z,8.50
2019-04-18T17:36:05.447Z,9.10
2019-04-18T17:38:43.604Z,8.80
2019-04-18T17:41:00.725Z,9.30
2019-04-18T17:43:23.075Z,9.30
2019-04-18T17:46:11.914Z,8.83
2019-04-18T17:48:42.010Z,8.47
2019-04-18T17:51:19.425Z,9.57
2019-04-18T17:53:51.346Z,9.13
2019-04-18T17:56:21.363Z,8.27
2019-04-18T17:58:42.911Z,8.20
2019-04-18T18:01:12.798Z,7.73
2019-04-18T18:03:47.561Z,7.83
2019-04-18T18:06:19.253Z,8.27
2019-04-18T18:08:49.009Z,9.20
2019-04-18T18:11:14.996Z,8.80
2019-04-18T18:13:43.467Z,7.80
2019-04-18T18:16:22.366Z,8.77
2019-04-18T18:18:46.347Z,8.47
2019-04-18T18:21:16.207Z,8.50
2019-04-18T18:23:50.417Z,9.67
2019-04-18T18:26:22.625Z,8.60
2019-04-18T18:28:46.657Z,8.67
2019-04-18T18:31:23.724Z,8.90
2019-04-18T18:33:59.351Z,9.90
2019-04-18T18:36:30.485Z,10.43
2019-04-18T18:38:57.170Z,10.17
2019-04-18T18:41:26.581Z,9.80
2019-04-18T18:44:01.254Z,10.03
2019-04-18T18:46:25.344Z,9.93
2019-04-18T18:48:55.929Z,9.83
2019-04-18T18:51:24.326Z,8.90
2019-04-18T18:53:53.447Z,8.90
2019-04-18T18:56:24.091Z,9.17
2019-04-18T18:58:55.460Z,8.77
2019-04-18T19:01:26.549Z,8.43
2019-04-18T19:03:54.519Z,8.77
2019-04-18T19:06:31.502Z,8.97
2019-04-18T19:09:29.205Z,8.97
2019-04-18T19:11:44.516Z,9.37
2019-04-18T19:14:06.318Z,8.33
2019-04-18T19:16:35.336Z,10.00
2019-04-18T19:18:55.496Z,9.40
2019-04-18T19:21:25.137Z,9.67
2019-04-18T19:23:54.955Z,8.40
2019-04-18T19:26:26.166Z,9.60
2019-04-18T19:29:07.680Z,9.00
2019-04-18T19:31:24.598Z,9.27
2019-04-18T19:33:53.219Z,9.17
2019-04-18T19:36:44.702Z,8.87
2019-04-18T19:39:11.181Z,8.70
2019-04-18T19:41:36.747Z,8.27
2019-04-18T19:43:53.021Z,9.63
2019-04-18T19:46:24.663Z,8.70
2019-04-18T19:48:52.426Z,8.70
2019-04-18T19:51:23.787Z,8.90
2019-04-18T19:53:57.244Z,9.20
2019-04-18T19:56:22.943Z,8.87
2019-04-18T19:58:51.767Z,9.10
2019-04-18T20:01:21.552Z,9.10
2019-04-18T20:03:52.128Z,8.67
2019-04-18T20:06:37.102Z,8.60
2019-04-18T20:09:10.624Z,8.37
2019-04-18T20:11:31.754Z,9.33
2019-04-18T20:14:00.922Z,9.07
2019-04-18T20:16:23.341Z,8.47
2019-04-18T20:18:53.259Z,7.77
2019-04-18T20:21:21.925Z,8.37
2019-04-18T20:23:51.426Z,8.80
2019-04-18T20:26:22.355Z,9.43
2019-04-18T20:28:51.666Z,9.53
2019-04-18T20:31:24.168Z,8.70
2019-04-18T20:33:59.809Z,8.80
2019-04-18T20:36:43.030Z,8.23
2019-04-18T20:39:33.776Z,8.07
2019-04-18T20:41:55.878Z,8.90
2019-04-18T20:44:08.749Z,8.40
2019-04-18T20:46:34.539Z,8.67
2019-04-18T20:49:19.827Z,8.17
2019-04-18T20:51:41.342Z,9.40
2019-04-18T20:54:16.765Z,9.20
2019-04-18T20:56:25.955Z,8.60
2019-04-18T20:58:57.331Z,8.40
2019-04-18T21:01:26.967Z,8.70
2019-04-18T21:03:55.581Z,8.80
2019-04-18T21:06:25.106Z,8.57
2019-04-18T21:09:06.255Z,8.37
2019-04-18T21:11:24.269Z,8.27
2019-04-18T21:13:52.903Z,8.50
2019-04-18T21:16:22.679Z,9.00
2019-04-18T21:18:52.178Z,9.10
2019-04-18T21:21:21.113Z,8.20
2019-04-18T21:23:50.810Z,9.10
2019-04-18T21:26:23.819Z,8.93
2019-04-18T21:28:53.981Z,10.00
2019-04-18T21:31:20.320Z,8.40
2019-04-18T21:33:49.507Z,8.80
2019-04-18T21:36:21.580Z,8.10
2019-04-18T21:38:54.848Z,8.10
2019-04-18T21:41:18.965Z,8.93
2019-04-18T21:43:55.993Z,8.53
2019-04-18T21:46:19.011Z,8.43
2019-04-18T21:48:53.852Z,8.27
2019-04-18T21:51:18.998Z,8.20
2019-04-18T21:53:54.572Z,8.60
2019-04-18T21:56:18.583Z,8.83
2019-04-18T21:59:01.128Z,8.07
2019-04-18T22:01:32.031Z,8.10
2019-04-18T22:03:58.154Z,8.23
2019-04-18T22:06:34.444Z,9.03
2019-04-18T22:09:03.292Z,8.00
2019-04-18T22:11:28.432Z,8.83
2019-04-18T22:13:58.361Z,8.23
2019-04-18T22:16:27.343Z,8.87
2019-04-18T22:18:55.996Z,8.20
2019-04-18T22:21:25.020Z,8.17
2019-04-18T22:23:54.661Z,8.37
2019-04-18T22:26:26.979Z,8.00
2019-04-18T22:28:54.782Z,8.33
2019-04-18T22:31:28.354Z,8.60
2019-04-18T22:33:54.343Z,7.73
2019-04-18T22:36:26.211Z,8.50
2019-04-18T22:38:54.657Z,7.70
2019-04-18T22:41:30.190Z,7.43
2019-04-18T22:43:53.870Z,9.07
2019-04-18T22:46:26.342Z,7.40
2019-04-18T22:48:53.045Z,8.00
2019-04-18T22:51:22.103Z,7.87
2019-04-18T22:53:56.731Z,8.40
2019-04-18T22:56:23.441Z,8.67
2019-04-18T22:58:58.080Z,8.13
2019-04-18T23:01:22.594Z,7.60
2019-04-18T23:03:51.328Z,7.73
2019-04-18T23:06:25.100Z,6.97
2019-04-18T23:08:56.509Z,7.27
2019-04-18T23:11:20.977Z,7.50
2019-04-18T23:13:49.812Z,7.37
2019-04-18T23:16:20.856Z,7.10
2019-04-18T23:18:56.459Z,7.67
2019-04-18T23:21:20.741Z,7.63
2019-04-18T23:23:52.550Z,6.87
2019-04-18T23:26:21.778Z,6.50
2019-04-18T23:28:58.288Z,6.90
2019-04-18T23:31:22.800Z,7.57
2019-04-18T23:33:56.901Z,7.73
2019-04-18T23:36:22.564Z,7.47
2019-04-18T23:39:00.220Z,7.13
2019-04-18T23:41:25.305Z,6.90
2019-04-18T23:43:54.756Z,7.20
2019-04-18T23:46:26.388Z,7.10
2019-04-18T23:48:54.343Z,7.70
2019-04-18T23:51:26.764Z,6.60
2019-04-18T23:53:54.755Z,6.70
2019-04-18T23:56:30.061Z,7.30
2019-04-18T23:58:56.962Z,7.17
